• Join FlightAware (Why Join?)
  • Login
  • US Flag 
02:09AM EDT


 

Airport Tracker/Info


-or-


 

Live Flight TrackerFlight Track Log ✈ AVN50 ✈ 04-Jan-2014 ✈ NVVV / VLI - NZAA / AKL

Flight Track Log - Related Links

Times and Time Zones

All times are in EST time to prevent confusion due to time zone crossing. See the AVN50 flight status page for this flight to view local times or setup timezone preferences in your user account.

Time Position Orientation Groundspeed Altitude Reporting Facility
EST Latitude Longitude Course Direction KTS MPH feet Rate Location/Type
03:00PM -18.1967 168.4547 166° South  Level FlightAware Approximate
03:01PM -18.2961 168.4818 166° South  Level FlightAware Approximate
03:02PM -18.3956 168.5089 165° South  Level FlightAware Approximate
03:03PM -18.4950 168.5361 165° South  Level FlightAware Approximate
03:04PM -18.5945 168.5633 165° South  Level FlightAware Approximate
03:05PM -18.6939 168.5905 165° South  Level FlightAware Approximate
03:06PM -18.7934 168.6177 165° South  Level FlightAware Approximate
03:07PM -18.8928 168.6450 165° South  Level FlightAware Approximate
03:08PM -18.9922 168.6723 165° South  Level FlightAware Approximate
03:09PM -19.0917 168.6996 165° South  Level FlightAware Approximate
03:10PM -19.1911 168.7270 165° South  Level FlightAware Approximate
03:11PM -19.2905 168.7544 165° South  Level FlightAware Approximate
03:12PM -19.3899 168.7818 165° South  Level FlightAware Approximate
03:13PM -19.4893 168.8093 165° South  Level FlightAware Approximate
03:14PM -19.5887 168.8368 165° South  Level FlightAware Approximate
03:15PM -19.6881 168.8644 165° South  Level FlightAware Approximate
03:16PM -19.7875 168.8919 165° South  Level FlightAware Approximate
03:17PM -19.8869 168.9195 165° South  Level FlightAware Approximate
03:18PM -19.9863 168.9472 165° South  Level FlightAware Approximate
03:19PM -20.0857 168.9749 165° South  Level FlightAware Approximate
03:20PM -20.1851 169.0026 165° South  Level FlightAware Approximate
03:21PM -20.2844 169.0303 165° South  Level FlightAware Approximate
03:22PM -20.3838 169.0581 165° South  Level FlightAware Approximate
03:23PM -20.4832 169.0859 165° South  Level FlightAware Approximate
03:24PM -20.5825 169.1138 165° South  Level FlightAware Approximate
03:25PM -20.6819 169.1417 165° South  Level FlightAware Approximate
03:26PM -20.7812 169.1696 165° South  Level FlightAware Approximate
03:27PM -20.8806 169.1976 165° South  Level FlightAware Approximate
03:28PM -20.9799 169.2256 165° South  Level FlightAware Approximate
03:29PM -21.0793 169.2536 165° South  Level FlightAware Approximate
03:30PM -21.1786 169.2817 165° South  Level FlightAware Approximate
03:31PM -21.2780 169.3098 165° South  Level FlightAware Approximate
03:32PM -21.3773 169.3379 165° South  Level FlightAware Approximate
03:33PM -21.4766 169.3661 165° South  Level FlightAware Approximate
03:34PM -21.5759 169.3944 165° South  Level FlightAware Approximate
03:35PM -21.6752 169.4226 165° South  Level FlightAware Approximate
03:36PM -21.7745 169.4509 165° South  Level FlightAware Approximate
03:37PM -21.8738 169.4793 165° South  Level FlightAware Approximate
03:38PM -21.9731 169.5077 165° South  Level FlightAware Approximate
03:39PM -22.0724 169.5361 165° South  Level FlightAware Approximate
03:40PM -22.1717 169.5646 165° South  Level FlightAware Approximate
03:41PM -22.2710 169.5931 165° South  Level FlightAware Approximate
03:42PM -22.3703 169.6216 165° South  Level FlightAware Approximate
03:43PM -22.4695 169.6502 165° South  Level FlightAware Approximate
03:44PM -22.5688 169.6788 165° South  Level FlightAware Approximate
03:45PM -22.6681 169.7075 165° South  Level FlightAware Approximate
03:46PM -22.7673 169.7362 165° South  Level FlightAware Approximate
03:47PM -22.8666 169.7650 165° South  Level FlightAware Approximate
03:48PM -22.9658 169.7938 165° South  Level FlightAware Approximate
03:49PM -23.0651 169.8226 165° South  Level FlightAware Approximate
03:50PM -23.1643 169.8515 165° South  Level FlightAware Approximate
03:51PM -23.2635 169.8804 165° South  Level FlightAware Approximate
03:52PM -23.3628 169.9094 165° South  Level FlightAware Approximate
03:53PM -23.4620 169.9384 165° South  Level FlightAware Approximate
03:54PM -23.5612 169.9674 165° South  Level FlightAware Approximate
03:55PM -23.6604 169.9965 165° South  Level FlightAware Approximate
03:56PM -23.7596 170.0257 165° South  Level FlightAware Approximate
03:57PM -23.8588 170.0548 165° South  Level FlightAware Approximate
03:58PM -23.9575 170.0860 164° South  Level Estimated
03:59PM -24.0566 170.1159 165° South  Level FlightAware Approximate
04:00PM -24.1556 170.1458 165° South  Level FlightAware Approximate
04:01PM -24.2546 170.1758 165° South  Level FlightAware Approximate
04:02PM -24.3536 170.2058 165° South  Level FlightAware Approximate
04:03PM -24.4527 170.2359 165° South  Level FlightAware Approximate
04:04PM -24.5517 170.2660 165° South  Level FlightAware Approximate
04:04PM -25.9333 170.6833 165° South 434 499  Level New Zealand
04:05PM -24.6507 170.2962 165° South  Level FlightAware Approximate
04:06PM -24.7497 170.3264 165° South  Level FlightAware Approximate
04:06PM -26.1667 170.7500 166° South 434 499  Level New Zealand
04:08PM -26.4000 170.8333 162° South 434 499  Level New Zealand
04:10PM -26.6333 170.9000 166° South 434 499  Level New Zealand
04:12PM -26.8667 170.9833 162° South 434 499  Level New Zealand
04:14PM -27.1000 171.0500 166° South 434 499  Level New Zealand
04:16PM -27.3333 171.1333 162° South 434 499  Level New Zealand
04:18PM -27.5667 171.2000 166° South 434 499  Level New Zealand
04:20PM -27.8000 171.2833 162° South 434 499  Level New Zealand
04:22PM -28.0333 171.3500 166° South 434 499  Level New Zealand
04:24PM -28.2667 171.4333 163° South 434 499  Level New Zealand
04:26PM -28.5000 171.5000 166° South 434 499  Level New Zealand
04:28PM -28.7333 171.5833 163° South 434 499  Level New Zealand
04:30PM -28.9667 171.6667 163° South 434 499  Level New Zealand
04:32PM -29.2000 171.7333 166° South 434 499  Level New Zealand
04:34PM -29.4333 171.8167 163° South 434 499  Level New Zealand
04:36PM -29.6500 171.9000 162° South 437 503  Level New Zealand
04:38PM -29.8833 171.9667 166° South 437 503  Level New Zealand
04:40PM -30.1167 172.0500 163° South 426 490  Level New Zealand
04:42PM -30.3333 172.1333 162° South 426 490  Level New Zealand
04:44PM -30.5667 172.2000 166° South 426 490  Level New Zealand
04:46PM -30.8000 172.2833 163° South 426 490  Level New Zealand
04:48PM -31.0167 172.3667 162° South 426 490  Level New Zealand
04:50PM -31.2500 172.4333 166° South 426 490  Level New Zealand
04:52PM -31.4833 172.5167 163° South 426 490  Level New Zealand
04:54PM -31.7000 172.6000 162° South 426 490  Level New Zealand
04:56PM -31.9333 172.6833 163° South 426 490  Level New Zealand
04:58PM -32.1667 172.7667 163° South 426 490  Level New Zealand
05:00PM -32.3833 172.8500 162° South 426 490  Level New Zealand
05:02PM -32.6167 172.9333 163° South 426 490  Level New Zealand
05:04PM -32.8333 173.0167 162° South 426 490  Level New Zealand
05:06PM -33.0833 173.0833 167° South 451 519  Level New Zealand
05:06PM -33.0667 173.1000 40° Northeast 426 490  Level New Zealand
05:08PM -33.3167 173.1833 164° South 449 517  Level New Zealand
05:08PM -33.3000 173.1667 320° Northwest 426 490  Level New Zealand
05:10PM -33.5667 173.2667 163° South 449 517  Level New Zealand
05:10PM -33.5167 173.2500 344° North 426 490  Level New Zealand
05:12PM -33.8167 173.3667 162° South 447 514  Level New Zealand
05:13PM -33.9333 173.4167 160° South 447 514  Level New Zealand
05:14PM -34.0333 173.5000 145° Southeast 457 526  Level New Zealand
05:15PM -34.1500 173.5833 149° Southeast 456 525  Level New Zealand
05:16PM -34.2667 173.6667 149° Southeast 456 525  Level New Zealand
05:17PM -34.3667 173.7500 145° Southeast 457 526  Level New Zealand
05:18PM -34.4833 173.8333 150° Southeast 459 528  Level New Zealand
05:19PM -34.6000 173.9167 150° Southeast 461 531  Level New Zealand
05:20PM -34.7000 174.0000 146° Southeast 462 532  Level New Zealand
05:21PM -34.8167 174.0833 150° Southeast 463 533  Level New Zealand
05:22PM -34.9333 174.1833 145° Southeast 463 533  Level New Zealand
05:23PM -35.0333 174.2667 146° Southeast 463 533  Level New Zealand
05:24PM -35.1500 174.3500 150° Southeast 463 533  Level New Zealand
05:25PM -35.2667 174.4000 161° South 454 522  Level New Zealand
05:26PM -35.3833 174.4667 155° Southeast 451 519  Level New Zealand
05:27PM -35.5000 174.5333 155° Southeast 448 516  Level New Zealand
05:28PM -35.6167 174.6000 155° Southeast 452 520  Level New Zealand
05:29PM -35.7500 174.6667 158° South 478 550  Level New Zealand
05:30PM -35.8667 174.7333 155° Southeast 471 542  Level New Zealand
05:31PM -35.9833 174.8000 155° Southeast 469 540  Level New Zealand
05:32PM -36.1167 174.8667 158° South 452 520  Level New Zealand
05:33PM -36.2167 174.9167 158° South 433 498  Level New Zealand
05:34PM -36.3333 174.9833 155° Southeast 414 476  Level New Zealand
05:35PM -36.4333 175.0500 152° Southeast 402 463  Level New Zealand
05:36PM -36.5333 175.1000 158° South 384 442  Level New Zealand
05:37PM -36.6333 175.1500 158° South 362 417  Level New Zealand
05:38PM -36.7167 175.1333 189° South 330 380  Level New Zealand
05:40PM -36.8000 175.1000 198° South 282 325  Level New Zealand
05:41PM -36.8667 175.0667 202° Southwest 244 281  Level New Zealand
05:42PM -36.9333 175.0500 191° South 218 251  Level New Zealand
05:43PM -36.9500 174.9833 253° West 191 220  Level New Zealand
05:44PM -36.9667 174.9167 253° West 190 219  Level New Zealand
05:45PM -36.9833 174.8667 247° West 164 189  Level New Zealand
05:46PM -37.0000 174.8167 247° West 153 176  Level New Zealand
05:48PM -37.0046 174.8136 160° South  Level FlightAware Approximate